Time;durP1;ratioP1;P1;durP2;ratioP2;P2;SDS_P1;SDS_P2;PMS_P1;PMS_P2;Temp;Humidity;BMP_temperature;BMP_pressure;BME280_temperature;BME280_humidity;BME280_pressure;Samples;Min_cycle;Max_cycle;Signal;HPM_P1;HPM_P2
2022/01/02 00:01:43;;;;;;;0.00;0.00;;;11.60;99.90;;;;;;5134323;27;20043;-85
2022/01/02 00:04:17;;;;;;;0.00;0.00;;;11.50;99.90;;;;;;5133874;27;20043;-85
2022/01/02 00:06:54;;;;;;;0.00;0.00;;;11.50;99.90;;;;;;5116929;28;20051;-85
2022/01/02 00:09:32;;;;;;;0.00;0.00;;;11.50;99.90;;;;;;5133965;27;20082;-85
2022/01/02 00:12:04;;;;;;;0.05;0.00;;;11.50;99.90;;;;;;5134187;27;20047;-85
2022/01/02 00:14:35;;;;;;;0.00;0.00;;;11.50;99.90;;;;;;5116890;28;20046;-85
2022/01/02 00:17:05;;;;;;;0.00;0.00;;;11.40;99.90;;;;;;5117691;27;20083;-85
2022/01/02 00:19:33;;;;;;;1.67;0.00;;;11.40;99.90;;;;;;5134031;28;20047;-86
2022/01/02 00:22:02;;;;;;;0.00;0.00;;;11.40;99.90;;;;;;5116572;28;20054;-86
2022/01/02 00:24:31;;;;;;;0.00;0.00;;;11.40;99.90;;;;;;5116406;28;20042;-86
2022/01/02 00:26:59;;;;;;;0.15;0.10;;;11.40;99.90;;;;;;5116945;28;20051;-86
2022/01/02 00:29:25;;;;;;;0.00;0.00;;;11.40;99.90;;;;;;5116668;27;20043;-86
2022/01/02 00:31:55;;;;;;;0.00;0.00;;;11.40;99.90;;;;;;5135154;27;20035;-86
2022/01/02 00:34:21;;;;;;;0.10;0.00;;;11.30;99.90;;;;;;5117298;28;20227;-86
2022/01/02 00:36:47;;;;;;;0.00;0.00;;;11.30;99.90;;;;;;5117839;28;20054;-86
2022/01/02 00:39:13;;;;;;;1.88;0.38;;;11.30;99.90;;;;;;5116290;28;20043;-86
2022/01/02 00:41:47;;;;;;;0.77;0.10;;;11.30;99.90;;;;;;5116273;28;20054;-86
2022/01/02 00:44:33;;;;;;;0.00;0.00;;;11.30;99.90;;;;;;5117131;28;20047;-86
2022/01/02 00:47:08;;;;;;;0.05;0.00;;;11.20;99.90;;;;;;5117073;28;20046;-86
2022/01/02 00:49:47;;;;;;;;;;;11.30;99.90;;;;;;5117401;28;20130;-86
2022/01/02 00:52:20;;;;;;;0.17;0.17;;;11.30;99.90;;;;;;5135102;28;19919;-86
2022/01/02 00:54:46;;;;;;;0.30;0.30;;;11.30;99.90;;;;;;5117472;28;20062;-86
2022/01/02 00:57:18;;;;;;;0.00;0.00;;;11.20;99.90;;;;;;5117568;28;20053;-86
2022/01/02 01:00:03;;;;;;;0.00;0.00;;;11.20;99.90;;;;;;5116534;28;20046;-86
2022/01/02 01:02:35;;;;;;;0.00;0.00;;;11.30;99.90;;;;;;5116448;28;20047;-87
2022/01/02 01:05:04;;;;;;;0.00;0.00;;;11.30;99.90;;;;;;5133726;28;20047;-87
2022/01/02 01:07:32;;;;;;;0.00;0.00;;;11.30;99.90;;;;;;5116173;28;20050;-86
2022/01/02 01:09:58;;;;;;;0.00;0.00;;;11.20;99.90;;;;;;5132958;27;20059;-87
2022/01/02 01:12:25;;;;;;;0.00;0.00;;;11.40;99.90;;;;;;5117108;28;20047;-88
2022/01/02 01:14:51;;;;;;;0.00;0.00;;;11.20;99.90;;;;;;5133790;28;20050;-88
2022/01/02 01:17:17;;;;;;;0.25;0.00;;;11.30;99.90;;;;;;5116117;28;20054;-88
2022/01/02 01:19:45;;;;;;;0.00;0.00;;;11.30;99.90;;;;;;5116380;28;20180;-87
2022/01/02 01:22:11;;;;;;;0.03;0.03;;;11.20;99.90;;;;;;5116499;28;20047;-88
2022/01/02 01:24:36;;;;;;;0.00;0.00;;;11.20;99.90;;;;;;5134485;27;20046;-87
2022/01/02 01:27:04;;;;;;;0.57;0.30;;;11.20;99.90;;;;;;5136989;27;20039;-87
2022/01/02 01:29:34;;;;;;;0.20;0.10;;;11.20;99.90;;;;;;5120431;27;20496;-87
2022/01/02 01:32:01;;;;;;;0.00;0.00;;;11.30;99.90;;;;;;5119938;27;20050;-87
2022/01/02 01:34:27;;;;;;;0.00;0.00;;;11.20;99.90;;;;;;5120484;27;20129;-86
2022/01/02 01:36:53;;;;;;;0.25;0.25;;;11.20;99.90;;;;;;5137488;27;20437;-87
2022/01/02 01:39:18;;;;;;;0.00;0.00;;;11.20;99.90;;;;;;5136009;27;20135;-86
2022/01/02 01:41:46;;;;;;;0.52;0.10;;;11.20;99.90;;;;;;5136358;27;20079;-86
2022/01/02 01:46:39;;;;;;;0.00;0.00;;;11.20;99.90;;;;;;5136985;27;20039;-86
2022/01/02 01:49:16;;;;;;;0.00;0.00;;;11.20;99.90;;;;;;5137511;27;20470;-86
2022/01/02 01:51:43;;;;;;;0.00;0.00;;;11.20;99.90;;;;;;5137836;27;20058;-86
2022/01/02 01:54:09;;;;;;;0.00;0.00;;;11.20;99.90;;;;;;5136908;27;20055;-87
2022/01/02 01:56:36;;;;;;;0.20;0.20;;;11.20;99.90;;;;;;5136486;27;20126;-86
2022/01/02 01:59:02;;;;;;;0.05;0.03;;;11.20;99.90;;;;;;5136090;27;20047;-86
2022/01/02 02:01:28;;;;;;;0.10;0.00;;;11.10;99.90;;;;;;5136161;27;20043;-86
2022/01/02 02:03:53;;;;;;;0.25;0.00;;;11.10;99.90;;;;;;5119641;27;20035;-87
2022/01/02 02:06:19;;;;;;;0.20;0.20;;;11.10;99.90;;;;;;5136083;27;20439;-86
2022/01/02 02:08:46;;;;;;;6.00;0.70;;;11.10;99.90;;;;;;5118549;27;20130;-87
2022/01/02 02:11:12;;;;;;;0.08;0.08;;;11.10;99.90;;;;;;5118817;27;20047;-87
2022/01/02 02:13:39;;;;;;;0.10;0.00;;;11.30;99.90;;;;;;5135515;27;20053;-86
2022/01/02 02:16:05;;;;;;;0.38;0.38;;;11.10;99.90;;;;;;5135871;27;20078;-86
2022/01/02 02:18:30;;;;;;;0.20;0.20;;;11.10;99.90;;;;;;5118854;27;20131;-86
2022/01/02 02:20:56;;;;;;;0.00;0.00;;;11.10;99.90;;;;;;5118499;27;20088;-86
2022/01/02 02:23:22;;;;;;;0.00;0.00;;;11.10;99.90;;;;;;5136475;27;20100;-86
2022/01/02 02:25:48;;;;;;;0.20;0.00;;;11.30;99.90;;;;;;5135699;27;20487;-85
2022/01/02 02:28:15;;;;;;;0.25;0.15;;;11.10;99.90;;;;;;5135714;27;20039;-85
2022/01/02 02:30:47;;;;;;;0.22;0.22;;;11.20;99.90;;;;;;5134949;27;20375;-85
2022/01/02 02:33:15;;;;;;;0.00;0.00;;;11.20;99.90;;;;;;5119341;27;20382;-85
2022/01/02 02:35:42;;;;;;;0.05;0.05;;;11.10;99.90;;;;;;5118482;27;20047;-85
2022/01/02 02:38:09;;;;;;;0.63;0.20;;;11.10;99.90;;;;;;5118838;27;20051;-86
2022/01/02 02:40:36;;;;;;;0.00;0.00;;;11.20;99.90;;;;;;5136235;27;20047;-85
2022/01/02 02:51:07;;;;;;;0.00;0.00;;;11.20;99.90;;;;;;5135465;27;20100;-85
2022/01/02 02:53:36;;;;;;;0.75;0.10;;;11.10;99.90;;;;;;5135994;27;20073;-85
2022/01/02 02:56:03;;;;;;;0.00;0.00;;;11.10;99.90;;;;;;5135274;27;20042;-85
2022/01/02 03:00:58;;;;;;;0.20;0.20;;;11.10;99.90;;;;;;5135613;27;20511;-85
2022/01/02 03:03:24;;;;;;;0.08;0.00;;;11.10;99.90;;;;;;5135379;27;20045;-85
2022/01/02 03:05:50;;;;;;;0.00;0.00;;;11.10;99.90;;;;;;5136060;27;20129;-85
2022/01/02 03:08:16;;;;;;;0.00;0.00;;;11.10;99.90;;;;;;5117971;27;20459;-85
2022/01/02 03:10:41;;;;;;;0.00;0.00;;;11.10;99.90;;;;;;5118056;27;20107;-85
2022/01/02 03:13:07;;;;;;;0.00;0.00;;;11.10;99.90;;;;;;5117768;27;20061;-85
2022/01/02 03:15:32;;;;;;;0.00;0.00;;;11.10;99.90;;;;;;5135074;27;20043;-86
2022/01/02 03:17:58;;;;;;;0.05;0.05;;;11.00;99.90;;;;;;5117905;27;20039;-86
2022/01/02 03:20:24;;;;;;;0.10;0.00;;;11.10;99.90;;;;;;5117705;27;20380;-85
2022/01/02 03:22:49;;;;;;;0.00;0.00;;;11.00;99.90;;;;;;5117763;27;20372;-86
2022/01/02 03:25:16;;;;;;;0.10;0.10;;;11.00;99.90;;;;;;5134602;27;20467;-86
2022/01/02 03:27:43;;;;;;;0.10;0.10;;;11.00;99.90;;;;;;5134678;27;20163;-86
2022/01/02 03:30:10;;;;;;;0.00;0.00;;;11.10;99.90;;;;;;5117295;27;20132;-86
2022/01/02 03:32:36;;;;;;;0.00;0.00;;;11.00;99.90;;;;;;5134741;27;20096;-85
2022/01/02 03:35:03;;;;;;;0.00;0.00;;;11.10;99.90;;;;;;5117839;27;20466;-85
2022/01/02 03:37:29;;;;;;;0.00;0.00;;;11.00;99.90;;;;;;5134641;27;20043;-85
2022/01/02 03:39:58;;;;;;;0.00;0.00;;;11.10;99.90;;;;;;5118022;27;20101;-86
2022/01/02 03:42:24;;;;;;;0.00;0.00;;;11.00;99.90;;;;;;5117413;27;20104;-86
2022/01/02 03:44:49;;;;;;;0.05;0.05;;;11.10;99.90;;;;;;5133810;27;20051;-86
2022/01/02 03:47:15;;;;;;;1.02;0.30;;;11.10;99.90;;;;;;5134272;27;20043;-86
2022/01/02 03:49:41;;;;;;;0.00;0.00;;;11.20;99.90;;;;;;5116809;27;20078;-85
2022/01/02 03:52:08;;;;;;;0.10;0.10;;;11.20;99.90;;;;;;5117208;27;20295;-85
2022/01/02 03:54:33;;;;;;;0.80;0.65;;;11.20;99.90;;;;;;5117451;27;20046;-85
2022/01/02 03:56:59;;;;;;;0.20;0.20;;;11.00;99.90;;;;;;5134260;27;20047;-85
2022/01/02 03:59:25;;;;;;;0.08;0.08;;;11.00;99.90;;;;;;5117004;27;20083;-85
2022/01/02 04:01:51;;;;;;;0.10;0.00;;;11.10;99.90;;;;;;5117002;27;20042;-85
2022/01/02 04:04:17;;;;;;;0.28;0.13;;;11.40;99.90;;;;;;5116581;27;20577;-85
2022/01/02 04:06:43;;;;;;;0.00;0.00;;;11.00;99.90;;;;;;5116951;27;20043;-85
2022/01/02 04:09:09;;;;;;;0.25;0.05;;;10.90;99.90;;;;;;5116570;27;20067;-85
2022/01/02 04:11:34;;;;;;;0.00;0.00;;;11.00;99.90;;;;;;5133579;27;20047;-85
2022/01/02 04:14:00;;;;;;;0.00;0.00;;;11.00;99.90;;;;;;5133391;27;20126;-85
2022/01/02 04:16:26;;;;;;;0.10;0.10;;;11.00;99.90;;;;;;5117379;27;20073;-85
2022/01/02 04:18:52;;;;;;;0.00;0.00;;;11.10;99.90;;;;;;5133738;27;20467;-85
2022/01/02 04:21:17;;;;;;;1.80;1.35;;;11.10;99.90;;;;;;5116429;28;20131;-85
2022/01/02 04:23:43;;;;;;;0.17;0.17;;;11.00;99.90;;;;;;5116672;28;20043;-85
2022/01/02 04:26:09;;;;;;;0.00;0.00;;;11.00;99.90;;;;;;5116443;28;20058;-85
2022/01/02 04:28:35;;;;;;;0.10;0.10;;;11.00;99.90;;;;;;5133896;28;20039;-85
2022/01/02 04:31:00;;;;;;;0.10;0.10;;;11.10;99.90;;;;;;5116674;28;20051;-84
2022/01/02 04:33:26;;;;;;;0.20;0.20;;;11.10;99.90;;;;;;5133807;28;20493;-84
2022/01/02 04:35:52;;;;;;;0.00;0.00;;;11.10;99.90;;;;;;5117146;28;20070;-84
2022/01/02 04:38:17;;;;;;;0.22;0.20;;;11.10;99.90;;;;;;5133501;28;20047;-85
2022/01/02 04:40:43;;;;;;;0.00;0.00;;;11.20;99.90;;;;;;5133418;28;20394;-85
2022/01/02 04:43:09;;;;;;;0.00;0.00;;;11.10;99.90;;;;;;5116399;28;20599;-85
2022/01/02 04:45:35;;;;;;;0.10;0.10;;;11.10;99.90;;;;;;5116007;28;20115;-86
2022/01/02 04:48:00;;;;;;;0.75;0.75;;;11.10;99.90;;;;;;5133354;28;20042;-86
2022/01/02 04:50:26;;;;;;;0.30;0.30;;;11.20;99.90;;;;;;5135814;27;20495;-85
2022/01/02 04:52:52;;;;;;;0.20;0.20;;;11.20;99.90;;;;;;5135863;27;20054;-85
2022/01/02 04:55:18;;;;;;;0.25;0.25;;;11.20;99.90;;;;;;5133467;28;20050;-86
2022/01/02 04:57:44;;;;;;;0.10;0.10;;;11.10;99.90;;;;;;5133485;28;20042;-85
2022/01/02 05:00:10;;;;;;;0.10;0.00;;;11.20;99.90;;;;;;5119211;27;20043;-85
2022/01/02 05:02:36;;;;;;;0.10;0.03;;;11.20;99.90;;;;;;5121602;27;20133;-86
2022/01/02 05:05:02;;;;;;;0.43;0.43;;;11.30;99.90;;;;;;5120446;27;20126;-86
2022/01/02 05:07:28;;;;;;;0.00;0.00;;;11.20;99.90;;;;;;5138237;27;20543;-86
2022/01/02 05:09:54;;;;;;;0.35;0.08;;;11.20;99.90;;;;;;5136610;27;20106;-85
2022/01/02 05:12:20;;;;;;;0.10;0.05;;;11.20;99.90;;;;;;5137601;27;20050;-85
2022/01/02 05:14:45;;;;;;;5.68;0.10;;;11.30;99.90;;;;;;5119964;27;20047;-86
2022/01/02 05:17:11;;;;;;;0.00;0.00;;;11.30;99.90;;;;;;5120308;27;20573;-85
2022/01/02 05:19:37;;;;;;;1.75;0.52;;;11.30;99.90;;;;;;5119936;27;20486;-86
2022/01/02 05:22:03;;;;;;;0.08;0.00;;;11.30;99.90;;;;;;5119627;27;20133;-86
2022/01/02 05:24:29;;;;;;;0.00;0.00;;;11.30;99.90;;;;;;5137260;27;20043;-85
2022/01/02 05:26:55;;;;;;;1.63;0.10;;;11.40;99.90;;;;;;5119967;27;20470;-86
2022/01/02 05:29:22;;;;;;;1.17;0.43;;;11.40;99.90;;;;;;5119910;27;20133;-86
2022/01/02 05:31:48;;;;;;;0.00;0.00;;;11.40;99.90;;;;;;5119202;27;20063;-86
2022/01/02 05:34:13;;;;;;;0.00;0.00;;;11.50;99.90;;;;;;5119788;27;20474;-86
2022/01/02 05:36:39;;;;;;;0.00;0.00;;;11.50;99.90;;;;;;5136806;27;20043;-86
2022/01/02 05:39:05;;;;;;;7.88;0.95;;;11.50;99.90;;;;;;5136814;27;20484;-86
2022/01/02 05:41:33;;;;;;;1.75;0.47;;;11.60;99.90;;;;;;5119946;27;20505;-86
2022/01/02 05:43:58;;;;;;;0.00;0.00;;;11.70;99.90;;;;;;5119685;27;20091;-86
2022/01/02 05:46:24;;;;;;;0.00;0.00;;;11.90;99.90;;;;;;5119750;27;20039;-86
2022/01/02 05:48:50;;;;;;;0.00;0.00;;;11.80;99.90;;;;;;5136741;27;20035;-86
2022/01/02 05:51:16;;;;;;;0.00;0.00;;;11.80;99.90;;;;;;5119543;27;20103;-86
2022/01/02 05:53:42;;;;;;;0.00;0.00;;;12.00;99.90;;;;;;5119804;27;20081;-85
2022/01/02 05:56:08;;;;;;;0.00;0.00;;;12.00;99.90;;;;;;5119208;27;20074;-86
2022/01/02 05:58:34;;;;;;;0.65;0.20;;;12.10;99.90;;;;;;5119412;27;20389;-86
2022/01/02 06:01:00;;;;;;;0.00;0.00;;;12.00;99.90;;;;;;5118973;27;20047;-87
2022/01/02 06:03:25;;;;;;;0.00;0.00;;;12.00;99.90;;;;;;5119018;27;20144;-86
2022/01/02 06:05:51;;;;;;;0.28;0.22;;;11.90;99.90;;;;;;5136195;27;20478;-86
2022/01/02 06:08:17;;;;;;;0.00;0.00;;;12.10;99.90;;;;;;5118992;27;20058;-87
2022/01/02 06:10:43;;;;;;;0.00;0.00;;;12.10;99.90;;;;;;5135396;27;20439;-87
2022/01/02 06:13:08;;;;;;;0.22;0.22;;;12.20;99.90;;;;;;5119015;27;20047;-86
2022/01/02 06:15:34;;;;;;;0.00;0.00;;;12.00;99.90;;;;;;5119354;27;20436;-86
2022/01/02 06:18:00;;;;;;;1.08;0.43;;;12.20;99.90;;;;;;5118918;27;20142;-86
2022/01/02 06:20:26;;;;;;;0.10;0.10;;;12.20;99.90;;;;;;5118884;27;20043;-86
2022/01/02 06:22:53;;;;;;;0.38;0.10;;;12.00;99.90;;;;;;5135311;27;20370;-86
2022/01/02 06:25:20;;;;;;;0.03;0.03;;;12.00;99.90;;;;;;5118298;27;20527;-86
2022/01/02 06:27:46;;;;;;;0.38;0.20;;;12.00;99.90;;;;;;5118722;27;20049;-86
2022/01/02 06:30:12;;;;;;;0.00;0.00;;;12.00;99.90;;;;;;5118621;27;20047;-86
2022/01/02 06:32:37;;;;;;;0.73;0.15;;;12.00;99.90;;;;;;5135586;27;20043;-86
2022/01/02 06:35:03;;;;;;;0.63;0.35;;;12.00;99.90;;;;;;5118144;27;20050;-87
2022/01/02 06:37:29;;;;;;;0.75;0.52;;;11.90;99.90;;;;;;5118495;27;20074;-86
2022/01/02 06:39:54;;;;;;;0.10;0.00;;;12.00;99.90;;;;;;5118146;27;20066;-86
2022/01/02 06:42:20;;;;;;;4.63;0.95;;;12.00;99.90;;;;;;5118385;27;20047;-86
2022/01/02 06:44:46;;;;;;;0.08;0.08;;;12.00;99.90;;;;;;5134905;27;20088;-86
2022/01/02 06:47:11;;;;;;;0.75;0.38;;;11.90;99.90;;;;;;5135353;27;20121;-85
2022/01/02 06:49:37;;;;;;;2.92;0.00;;;11.90;99.90;;;;;;5135542;27;20111;-85
2022/01/02 06:52:03;;;;;;;1.15;0.20;;;11.90;99.90;;;;;;5135375;27;20046;-86
2022/01/02 06:54:28;;;;;;;0.22;0.10;;;11.90;99.90;;;;;;5135145;27;20050;-86
2022/01/02 06:56:54;;;;;;;0.00;0.00;;;11.90;99.90;;;;;;5117975;27;20051;-85
2022/01/02 06:59:20;;;;;;;0.13;0.13;;;11.90;99.90;;;;;;5140627;27;20031;-86
2022/01/02 07:01:46;;;;;;;0.00;0.00;;;11.90;99.90;;;;;;5146720;27;20129;-86
2022/01/02 07:04:11;;;;;;;0.32;0.10;;;11.80;99.90;;;;;;5138268;27;20039;-85
2022/01/02 07:06:37;;;;;;;0.00;0.00;;;11.80;99.90;;;;;;5139427;27;20042;-86
2022/01/02 07:09:03;;;;;;;0.10;0.05;;;11.70;99.90;;;;;;5155786;27;20371;-85
2022/01/02 07:11:29;;;;;;;0.00;0.00;;;11.80;99.90;;;;;;5138601;27;20094;-85
2022/01/02 07:13:54;;;;;;;0.00;0.00;;;11.80;99.90;;;;;;5137790;27;20078;-85
2022/01/02 07:16:20;;;;;;;0.10;0.10;;;11.80;99.90;;;;;;5155979;27;20038;-86
2022/01/02 07:18:46;;;;;;;0.10;0.00;;;11.80;99.90;;;;;;5138606;27;20053;-86
2022/01/02 07:21:11;;;;;;;0.10;0.10;;;11.80;99.90;;;;;;5138315;27;20130;-85
2022/01/02 07:23:37;;;;;;;0.73;0.22;;;11.70;99.90;;;;;;5138217;27;20078;-85
2022/01/02 07:26:03;;;;;;;0.20;0.20;;;11.70;99.90;;;;;;5155830;27;20049;-85
2022/01/02 07:28:33;;;;;;;0.88;0.38;;;11.70;99.90;;;;;;5137856;27;20057;-86
2022/01/02 07:30:59;;;;;;;0.00;0.00;;;11.70;99.90;;;;;;5137642;27;20506;-86
2022/01/02 07:33:25;;;;;;;0.10;0.10;;;11.70;99.90;;;;;;5155719;27;20043;-86
2022/01/02 07:35:51;;;;;;;0.80;0.10;;;11.70;99.90;;;;;;5137848;27;20058;-86
2022/01/02 07:38:16;;;;;;;0.38;0.32;;;11.70;99.90;;;;;;5156065;27;20133;-86
2022/01/02 07:40:42;;;;;;;0.10;0.10;;;11.70;99.90;;;;;;5155834;27;20190;-86
2022/01/02 07:43:08;;;;;;;0.00;0.00;;;11.70;99.90;;;;;;5137644;27;20065;-86
2022/01/02 07:45:34;;;;;;;0.00;0.00;;;11.60;99.90;;;;;;5155184;27;20114;-87
2022/01/02 07:47:59;;;;;;;4.53;1.55;;;11.60;99.90;;;;;;5156342;27;20359;-86
2022/01/02 07:50:25;;;;;;;6.72;0.60;;;11.60;99.90;;;;;;5138138;27;20057;-86
2022/01/02 07:52:54;;;;;;;2.50;0.65;;;11.60;99.90;;;;;;5154637;27;20046;-87
2022/01/02 07:55:20;;;;;;;0.00;0.00;;;11.70;99.90;;;;;;5137741;27;20045;-85
2022/01/02 07:57:46;;;;;;;0.40;0.20;;;11.60;99.90;;;;;;5143374;27;20389;-86
2022/01/02 08:00:13;;;;;;;0.00;0.00;;;11.70;99.90;;;;;;5154964;27;20039;-87
2022/01/02 08:02:39;;;;;;;0.00;0.00;;;11.60;99.90;;;;;;5137463;27;20397;-86
2022/01/02 08:05:06;;;;;;;0.65;0.38;;;11.70;99.90;;;;;;5137304;27;20039;-86
2022/01/02 08:07:33;;;;;;;3.03;0.77;;;11.70;99.90;;;;;;5138213;27;20129;-85
2022/01/02 08:09:59;;;;;;;0.40;0.35;;;11.70;99.90;;;;;;5137225;27;20050;-86
2022/01/02 08:12:24;;;;;;;0.00;0.00;;;12.20;99.90;;;;;;5136678;27;20118;-86
2022/01/02 08:14:50;;;;;;;0.10;0.10;;;11.70;99.90;;;;;;5154723;27;20054;-86
2022/01/02 08:17:16;;;;;;;3.47;0.85;;;11.70;99.90;;;;;;5137317;27;20058;-86
2022/01/02 08:19:41;;;;;;;0.00;0.00;;;11.70;99.90;;;;;;5154621;27;20051;-87
2022/01/02 08:22:07;;;;;;;7.13;0.32;;;11.70;99.90;;;;;;5137048;27;20065;-87
2022/01/02 08:24:33;;;;;;;0.00;0.00;;;11.60;99.90;;;;;;5137016;27;20058;-88
2022/01/02 08:26:58;;;;;;;0.00;0.00;;;11.60;99.90;;;;;;5137134;27;20054;-88
2022/01/02 08:29:24;;;;;;;0.10;0.10;;;11.60;99.90;;;;;;5138079;27;20056;-88
2022/01/02 08:31:50;;;;;;;0.10;0.00;;;11.70;99.90;;;;;;5154766;27;20039;-89
2022/01/02 08:34:15;;;;;;;0.08;0.00;;;11.50;99.90;;;;;;5136862;27;20486;-87
2022/01/02 08:36:41;;;;;;;0.00;0.00;;;11.50;99.90;;;;;;5138214;27;20061;-86
2022/01/02 08:39:07;;;;;;;0.70;0.22;;;11.60;99.90;;;;;;5138026;27;20302;-87
2022/01/02 08:41:32;;;;;;;0.35;0.32;;;11.60;99.90;;;;;;5120849;27;20047;-87
2022/01/02 08:43:58;;;;;;;0.00;0.00;;;11.50;99.90;;;;;;5123683;27;20049;-92
2022/01/02 08:46:24;;;;;;;0.25;0.25;;;11.50;99.90;;;;;;5131864;27;20045;-90
2022/01/02 08:48:49;;;;;;;0.20;0.10;;;11.50;99.90;;;;;;5147657;27;20085;-89
2022/01/02 08:51:15;;;;;;;0.10;0.10;;;11.50;99.90;;;;;;5132746;27;20448;-87
2022/01/02 08:53:41;;;;;;;0.10;0.10;;;11.60;99.90;;;;;;5124258;27;20088;-86
2022/01/02 08:56:07;;;;;;;0.40;0.00;;;11.60;99.90;;;;;;5120616;27;20054;-92
2022/01/02 08:58:33;;;;;;;0.00;0.00;;;11.60;99.90;;;;;;5131561;27;20043;-89
2022/01/02 09:01:00;;;;;;;1.15;0.57;;;11.60;99.90;;;;;;5121936;27;20591;-88
2022/01/02 09:03:26;;;;;;;0.00;0.00;;;11.60;99.90;;;;;;5129176;27;20067;-87
2022/01/02 09:05:52;;;;;;;0.85;0.52;;;11.60;99.90;;;;;;5130873;27;20510;-86
2022/01/02 09:08:18;;;;;;;0.10;0.10;;;11.70;99.90;;;;;;5138646;27;20156;-88
2022/01/02 09:10:44;;;;;;;0.13;0.00;;;11.50;99.90;;;;;;5136335;27;20050;-90
2022/01/02 09:13:10;;;;;;;0.20;0.20;;;11.50;99.90;;;;;;5146411;27;20042;-88
2022/01/02 09:15:38;;;;;;;0.00;0.00;;;11.50;99.90;;;;;;5130298;27;20031;-88
2022/01/02 09:18:05;;;;;;;0.10;0.00;;;11.50;99.90;;;;;;5127464;27;20124;-89
2022/01/02 09:20:34;;;;;;;0.30;0.20;;;11.50;99.90;;;;;;5147765;27;20057;-89
2022/01/02 09:22:59;;;;;;;0.00;0.00;;;11.50;99.90;;;;;;5129791;27;20043;-88
2022/01/02 09:25:25;;;;;;;0.00;0.00;;;11.50;99.90;;;;;;5127826;27;20049;-86
2022/01/02 09:27:51;;;;;;;0.00;0.00;;;11.50;99.90;;;;;;5151340;27;20137;-90
2022/01/02 09:30:17;;;;;;;0.10;0.10;;;11.50;99.90;;;;;;5136102;27;20229;-89
2022/01/02 09:32:43;;;;;;;0.10;0.10;;;11.50;99.90;;;;;;5144902;27;20102;-86
2022/01/02 09:35:10;;;;;;;0.00;0.00;;;11.50;99.90;;;;;;5139609;27;20043;-87
2022/01/02 09:37:36;;;;;;;0.00;0.00;;;11.50;99.90;;;;;;5120582;27;20086;-85
2022/01/02 09:40:06;;;;;;;0.00;0.00;;;11.50;99.90;;;;;;5120020;27;20069;-85
2022/01/02 09:42:33;;;;;;;0.15;0.15;;;11.40;99.90;;;;;;5119935;27;20138;-85
2022/01/02 09:44:59;;;;;;;1.65;0.65;;;11.50;99.90;;;;;;5118474;28;20364;-86
2022/01/02 09:47:25;;;;;;;2.78;0.90;;;11.40;99.90;;;;;;5118643;27;20458;-85
2022/01/02 09:49:51;;;;;;;0.10;0.10;;;11.40;99.90;;;;;;5136883;27;20103;-85
2022/01/02 09:52:17;;;;;;;0.00;0.00;;;11.50;99.90;;;;;;5119131;27;20594;-85
2022/01/02 09:54:45;;;;;;;0.05;0.05;;;11.50;99.90;;;;;;5119272;27;20043;-85
2022/01/02 09:57:11;;;;;;;0.00;0.00;;;11.60;99.90;;;;;;5136350;27;20074;-85
2022/01/02 09:59:38;;;;;;;0.00;0.00;;;11.50;99.90;;;;;;5136179;27;20144;-85
2022/01/02 10:02:03;;;;;;;0.00;0.00;;;11.60;99.90;;;;;;5143717;27;20095;-84
2022/01/02 10:04:41;;;;;;;0.63;0.08;;;11.50;99.90;;;;;;5156702;27;20042;-84
2022/01/02 10:07:29;;;;;;;0.00;0.00;;;11.60;99.90;;;;;;5139510;27;20505;-85
2022/01/02 10:09:55;;;;;;;0.00;0.00;;;11.50;99.90;;;;;;5139228;27;20050;-85
2022/01/02 10:12:22;;;;;;;0.00;0.00;;;11.60;99.90;;;;;;5157414;27;20045;-85
2022/01/02 10:15:06;;;;;;;0.13;0.13;;;11.60;99.90;;;;;;5139446;27;20038;-84
2022/01/02 10:17:50;;;;;;;0.00;0.00;;;11.60;99.90;;;;;;5139596;27;20053;-85
2022/01/02 10:20:16;;;;;;;0.00;0.00;;;11.70;99.90;;;;;;5156359;27;20489;-85
2022/01/02 10:23:00;;;;;;;0.00;0.00;;;11.70;99.90;;;;;;5156644;27;20049;-85
2022/01/02 10:25:46;;;;;;;1.40;0.27;;;11.70;99.90;;;;;;5132473;27;20039;-84
2022/01/02 10:28:27;;;;;;;0.00;0.00;;;11.80;99.90;;;;;;5119215;27;20790;-86
2022/01/02 10:31:14;;;;;;;0.00;0.00;;;11.80;99.90;;;;;;5119207;27;20145;-85
2022/01/02 10:33:57;;;;;;;0.75;0.52;;;11.90;99.90;;;;;;5119093;27;20054;-86
2022/01/02 10:36:52;;;;;;;0.00;0.00;;;11.90;99.90;;;;;;5119419;27;20419;-86
2022/01/02 10:39:19;;;;;;;2.30;0.95;;;11.90;99.90;;;;;;5040172;28;20139;-86
2022/01/02 10:41:50;;;;;;;0.57;0.30;;;12.00;99.90;;;;;;5057062;28;20041;-86
2022/01/02 10:44:31;;;;;;;0.05;0.00;;;12.00;99.90;;;;;;5040400;28;20562;-85
2022/01/02 10:47:14;;;;;;;0.00;0.00;;;11.90;99.90;;;;;;5057987;28;20044;-86
2022/01/02 10:50:17;;;;;;;1.15;0.65;;;12.00;99.90;;;;;;5040526;28;20107;-86
2022/01/02 10:52:47;;;;;;;0.00;0.00;;;11.90;99.90;;;;;;4978806;28;20423;-86
2022/01/02 10:55:21;;;;;;;0.20;0.20;;;12.00;99.90;;;;;;4977172;28;20086;-86
2022/01/02 10:57:49;;;;;;;3.00;0.55;;;12.00;99.90;;;;;;4976970;28;20061;-86
2022/01/02 11:00:20;;;;;;;4.00;0.57;;;12.00;99.90;;;;;;4977451;28;20061;-86
2022/01/02 11:02:46;;;;;;;0.63;0.28;;;12.10;99.90;;;;;;4977413;28;20170;-86
2022/01/02 11:05:17;;;;;;;0.03;0.03;;;12.10;99.90;;;;;;4960941;28;20053;-86
2022/01/02 11:07:48;;;;;;;0.40;0.40;;;12.20;99.90;;;;;;4976947;28;20398;-85
2022/01/02 11:10:22;;;;;;;0.15;0.03;;;12.20;99.90;;;;;;4977364;28;20478;-86
2022/01/02 11:12:49;;;;;;;0.10;0.10;;;12.20;99.90;;;;;;4961656;28;20116;-85
2022/01/02 11:15:17;;;;;;;0.05;0.00;;;12.10;99.90;;;;;;4999206;28;20131;-86
2022/01/02 11:17:44;;;;;;;0.38;0.38;;;12.10;99.90;;;;;;5039672;28;20056;-89
2022/01/02 11:20:22;;;;;;;0.10;0.10;;;12.20;99.90;;;;;;5039478;28;20060;-89
2022/01/02 11:23:03;;;;;;;0.93;0.35;;;12.20;99.90;;;;;;5039615;28;20099;-89
2022/01/02 11:25:50;;;;;;;0.00;0.00;;;12.10;99.90;;;;;;5073515;28;20369;-90
2022/01/02 11:28:15;;;;;;;0.20;0.20;;;12.10;99.90;;;;;;5118634;27;20394;-89
2022/01/02 11:30:42;;;;;;;0.00;0.00;;;12.10;99.90;;;;;;5118099;27;20043;-88
2022/01/02 11:33:14;;;;;;;0.08;0.08;;;12.10;99.90;;;;;;5118189;27;20455;-90
2022/01/02 11:35:45;;;;;;;0.08;0.00;;;12.10;99.90;;;;;;5117928;27;20051;-89
2022/01/02 11:38:11;;;;;;;0.00;0.00;;;12.10;99.90;;;;;;5118465;27;20426;-89
2022/01/02 11:40:56;;;;;;;0.60;0.38;;;12.10;99.90;;;;;;5134625;27;20065;-89
2022/01/02 11:43:49;;;;;;;0.10;0.00;;;12.20;99.90;;;;;;5117429;27;20051;-89
2022/01/02 11:46:39;;;;;;;0.28;0.00;;;12.10;99.90;;;;;;5134579;27;20059;-90
2022/01/02 11:49:05;;;;;;;0.10;0.00;;;12.10;99.90;;;;;;5039383;28;20411;-89
2022/01/02 11:51:49;;;;;;;2.00;0.55;;;12.10;99.90;;;;;;5039225;28;20056;-89
2022/01/02 11:54:30;;;;;;;0.20;0.00;;;12.10;99.90;;;;;;5039185;28;20152;-90
2022/01/02 11:57:00;;;;;;;0.00;0.00;;;12.10;99.90;;;;;;5055580;28;20056;-89
2022/01/02 11:59:43;;;;;;;0.00;0.00;;;12.10;99.90;;;;;;5056293;28;20463;-89
2022/01/02 12:02:31;;;;;;;0.00;0.00;;;12.00;99.90;;;;;;5039035;28;20086;-91
2022/01/02 12:07:33;;;;;;;0.00;0.00;;;11.90;99.90;;;;;;4976878;28;20050;-90
2022/01/02 12:10:16;;;;;;;0.20;0.20;;;12.00;99.90;;;;;;4975532;28;20159;-89
2022/01/02 12:15:34;;;;;;;0.10;0.10;;;12.00;99.90;;;;;;4977060;28;20493;-90
2022/01/02 12:18:16;;;;;;;2.65;0.47;;;12.00;99.90;;;;;;4976451;28;20050;-90
2022/01/02 12:20:54;;;;;;;0.08;0.08;;;12.00;99.90;;;;;;4976705;28;20059;-89
2022/01/02 12:23:34;;;;;;;0.00;0.00;;;12.00;99.90;;;;;;4964980;28;20129;-89
2022/01/02 12:26:09;;;;;;;0.25;0.10;;;12.10;99.90;;;;;;4996417;28;20061;-89
2022/01/02 12:29:00;;;;;;;0.20;0.10;;;12.10;99.90;;;;;;5038908;28;20466;-90
2022/01/02 12:31:32;;;;;;;0.10;0.00;;;12.10;99.90;;;;;;5054693;28;20447;-89
2022/01/02 12:34:09;;;;;;;0.03;0.00;;;12.10;99.90;;;;;;5038045;28;20057;-90
2022/01/02 12:36:36;;;;;;;0.00;0.00;;;12.10;99.90;;;;;;5038643;28;20048;-90
2022/01/02 12:39:07;;;;;;;0.05;0.00;;;12.10;99.90;;;;;;5054517;28;20143;-90
2022/01/02 12:41:35;;;;;;;0.00;0.00;;;12.20;99.90;;;;;;5075971;28;20055;-89
2022/01/02 12:44:05;;;;;;;0.90;0.52;;;12.10;99.90;;;;;;5133787;28;20084;-90
2022/01/02 12:46:37;;;;;;;0.00;0.00;;;12.10;99.90;;;;;;5116709;28;20043;-89
2022/01/02 12:49:05;;;;;;;0.13;0.08;;;12.10;99.90;;;;;;5134156;28;20437;-89
2022/01/02 12:51:32;;;;;;;0.00;0.00;;;12.10;99.90;;;;;;5134192;28;20047;-90
2022/01/02 12:54:05;;;;;;;1.40;0.73;;;12.10;99.90;;;;;;5117476;28;20047;-84
2022/01/02 12:56:42;;;;;;;0.20;0.20;;;12.10;99.90;;;;;;5116109;28;20051;-85
2022/01/02 12:59:30;;;;;;;0.90;0.20;;;12.10;99.90;;;;;;5116332;28;20043;-85
2022/01/02 13:02:13;;;;;;;0.00;0.00;;;12.10;99.90;;;;;;5116481;28;20509;-85
2022/01/02 13:04:49;;;;;;;0.00;0.00;;;12.20;99.90;;;;;;5117448;28;20043;-85
2022/01/02 13:07:21;;;;;;;0.00;0.00;;;12.10;99.90;;;;;;5133708;28;20043;-85
2022/01/02 13:09:50;;;;;;;0.00;0.00;;;12.10;99.90;;;;;;5132763;27;20047;-84
2022/01/02 13:12:17;;;;;;;0.00;0.00;;;12.10;99.90;;;;;;5133396;28;20047;-84
2022/01/02 13:14:45;;;;;;;0.63;0.17;;;12.10;99.90;;;;;;5116456;28;20131;-84